createdAt,value
2022-10-09T00:01:53.828Z,101672.16
2022-10-09T00:04:24.270Z,101678.53
2022-10-09T00:06:56.034Z,101677.22
2022-10-09T00:09:26.531Z,101684.13
2022-10-09T00:11:56.480Z,101691.88
2022-10-09T00:14:29.372Z,101701.94
2022-10-09T00:16:59.911Z,101703.75
2022-10-09T00:19:29.735Z,101702.44
2022-10-09T00:22:00.215Z,101700.41
2022-10-09T00:24:30.184Z,101710.50
2022-10-09T00:27:00.151Z,101701.66
2022-10-09T00:29:33.578Z,101712.34
2022-10-09T00:32:03.804Z,101713.66
2022-10-09T00:34:34.296Z,101723.13
2022-10-09T00:37:04.739Z,101722.06
2022-10-09T00:39:34.612Z,101722.16
2022-10-09T00:42:06.913Z,101726.47
2022-10-09T00:44:58.093Z,101723.63
2022-10-09T00:47:34.103Z,101724.81
2022-10-09T00:50:08.415Z,101732.97
2022-10-09T00:52:39.063Z,101737.53
2022-10-09T00:55:11.860Z,101729.00
2022-10-09T00:57:43.271Z,101737.16
2022-10-09T01:00:17.280Z,101742.88
2022-10-09T01:02:47.949Z,101745.88
2022-10-09T01:05:19.045Z,101737.63
2022-10-09T01:07:54.803Z,101751.50
2022-10-09T01:10:32.973Z,101741.78
2022-10-09T01:13:11.439Z,101740.44
2022-10-09T01:15:51.091Z,101747.38
2022-10-09T01:18:28.982Z,101738.88
2022-10-09T01:21:05.558Z,101751.34
2022-10-09T01:24:05.977Z,101751.81
2022-10-09T01:26:58.802Z,101750.34
2022-10-09T01:29:34.732Z,101756.59
2022-10-09T01:32:06.406Z,101757.31
2022-10-09T01:34:37.220Z,101766.81
2022-10-09T01:37:08.528Z,101763.94
2022-10-09T01:39:40.404Z,101761.41
2022-10-09T01:42:14.512Z,101770.75
2022-10-09T01:44:45.165Z,101769.44
2022-10-09T01:47:18.913Z,101773.81
2022-10-09T01:49:56.400Z,101780.25
2022-10-09T01:52:41.293Z,101774.50
2022-10-09T01:55:27.773Z,101779.75
2022-10-09T01:58:07.704Z,101781.44
2022-10-09T02:00:41.948Z,101778.94
2022-10-09T02:03:16.104Z,101779.03
2022-10-09T02:05:49.122Z,101778.47
2022-10-09T02:08:21.902Z,101781.56
2022-10-09T02:10:55.767Z,101770.47
2022-10-09T02:13:28.411Z,101782.69
2022-10-09T02:16:06.771Z,101783.47
2022-10-09T02:18:41.044Z,101781.13
2022-10-09T02:21:16.203Z,101787.75
2022-10-09T02:23:49.405Z,101783.63
2022-10-09T02:26:20.907Z,101783.72
2022-10-09T02:28:54.324Z,101783.63
2022-10-09T02:31:48.109Z,101784.72
2022-10-09T02:34:21.267Z,101782.78
2022-10-09T02:36:52.883Z,101785.31
2022-10-09T02:39:22.737Z,101787.22
2022-10-09T02:41:53.143Z,101787.56
2022-10-09T02:44:26.231Z,101791.16
2022-10-09T02:46:56.498Z,101796.19
2022-10-09T02:49:26.288Z,101796.81
2022-10-09T02:51:56.215Z,101793.09
2022-10-09T02:54:26.482Z,101794.66
2022-10-09T02:56:56.431Z,101783.50
2022-10-09T02:59:29.028Z,101782.88
2022-10-09T03:01:59.597Z,101781.34
2022-10-09T03:04:29.825Z,101785.41
2022-10-09T03:07:00.218Z,101783.50
2022-10-09T03:09:52.797Z,101790.81
2022-10-09T03:12:23.753Z,101788.50
2022-10-09T03:14:56.364Z,101790.94
2022-10-09T03:17:26.590Z,101794.63
2022-10-09T03:19:56.690Z,101791.63
2022-10-09T03:22:26.638Z,101799.34
2022-10-09T03:24:56.829Z,101805.06
2022-10-09T03:27:26.799Z,101810.94
2022-10-09T03:30:00.233Z,101804.56
2022-10-09T03:32:30.188Z,101806.34
2022-10-09T03:35:00.702Z,101812.59
2022-10-09T03:37:31.700Z,101809.28
2022-10-09T03:40:02.122Z,101807.25
2022-10-09T03:42:32.127Z,101813.66
2022-10-09T03:45:05.830Z,101818.69
2022-10-09T03:47:36.193Z,101818.94
2022-10-09T03:50:06.375Z,101825.47
2022-10-09T03:52:36.412Z,101825.38
2022-10-09T03:55:07.784Z,101830.50
2022-10-09T03:57:38.187Z,101826.69
2022-10-09T04:00:13.391Z,101836.53
2022-10-09T04:02:43.585Z,101825.72
2022-10-09T04:05:13.977Z,101825.94
2022-10-09T04:07:44.281Z,101827.75
2022-10-09T04:10:14.854Z,101824.50
2022-10-09T04:12:45.087Z,101832.53
2022-10-09T04:15:18.204Z,101837.56
2022-10-09T04:18:01.294Z,101833.00
2022-10-09T04:20:34.091Z,101840.56
2022-10-09T04:23:03.975Z,101845.34
2022-10-09T04:25:34.554Z,101861.16
2022-10-09T04:28:04.576Z,101852.38
2022-10-09T04:30:37.371Z,101850.38
2022-10-09T04:33:11.946Z,101848.53
2022-10-09T04:35:44.773Z,101846.13
2022-10-09T04:38:15.478Z,101853.91
2022-10-09T04:40:45.979Z,101860.66
2022-10-09T04:43:16.399Z,101860.41
2022-10-09T04:45:49.737Z,101863.28
2022-10-09T04:48:20.261Z,101860.19
2022-10-09T04:50:50.171Z,101858.97
2022-10-09T04:53:20.060Z,101868.97
2022-10-09T04:55:50.661Z,101860.97
2022-10-09T04:58:20.755Z,101866.38
2022-10-09T05:00:53.727Z,101869.59
2022-10-09T05:03:23.778Z,101867.97
2022-10-09T05:05:54.602Z,101875.19
2022-10-09T05:08:24.718Z,101874.72
2022-10-09T05:10:55.179Z,101868.75
2022-10-09T05:13:25.087Z,101867.34
2022-10-09T05:15:57.831Z,101870.66
2022-10-09T05:18:28.783Z,101867.47
2022-10-09T05:20:58.701Z,101867.00
2022-10-09T05:23:30.203Z,101866.50
2022-10-09T05:26:03.037Z,101872.66
2022-10-09T05:28:33.516Z,101883.59
2022-10-09T05:31:06.928Z,101875.63
2022-10-09T05:33:37.500Z,101885.78
2022-10-09T05:36:08.538Z,101884.31
2022-10-09T05:38:38.745Z,101887.72
2022-10-09T05:41:10.560Z,101892.94
2022-10-09T05:43:42.912Z,101893.84
2022-10-09T05:46:17.113Z,101905.91
2022-10-09T05:48:50.139Z,101905.34
2022-10-09T05:51:22.215Z,101911.06
2022-10-09T05:53:53.016Z,101916.59
2022-10-09T05:56:25.253Z,101911.56
2022-10-09T05:58:57.276Z,101919.00
2022-10-09T06:01:32.034Z,101920.69
2022-10-09T06:04:03.324Z,101923.09
2022-10-09T06:06:35.481Z,101925.00
2022-10-09T06:09:06.611Z,101927.56
2022-10-09T06:11:38.059Z,101933.31
2022-10-09T06:14:09.833Z,101925.69
2022-10-09T06:16:44.199Z,101932.22
2022-10-09T06:19:17.180Z,101939.81
2022-10-09T06:21:47.808Z,101943.97
2022-10-09T06:24:28.350Z,101944.66
2022-10-09T06:34:23.008Z,101950.78
2022-10-09T06:36:53.258Z,101952.94
2022-10-09T06:39:23.379Z,101948.16
2022-10-09T06:53:07.172Z,101969.94
2022-10-09T06:55:37.809Z,101974.25
2022-10-09T06:58:07.592Z,101977.81
2022-10-09T07:00:37.481Z,101981.00
2022-10-09T07:03:07.766Z,101980.13
2022-10-09T07:05:37.742Z,101989.53
2022-10-09T07:08:11.228Z,101991.00
2022-10-09T07:10:43.410Z,101986.84
2022-10-09T07:13:32.124Z,101991.09
2022-10-09T07:16:05.784Z,101984.59
2022-10-09T07:18:37.359Z,101984.94
2022-10-09T07:21:09.086Z,101991.66
2022-10-09T07:23:45.094Z,102000.25
2022-10-09T07:26:36.656Z,102000.56
2022-10-09T07:29:13.266Z,102005.72
2022-10-09T07:31:45.233Z,102000.75
2022-10-09T07:37:03.534Z,101994.91
2022-10-09T07:39:57.744Z,101997.22
2022-10-09T07:42:31.102Z,101997.84
2022-10-09T07:45:04.140Z,102005.94
2022-10-09T07:47:34.908Z,102003.81
2022-10-09T07:50:06.719Z,102003.31
2022-10-09T07:52:37.902Z,102007.25
2022-10-09T07:55:16.592Z,102006.19
2022-10-09T08:04:00.398Z,102003.56
2022-10-09T08:06:35.592Z,102009.59
2022-10-09T08:09:09.464Z,102008.72
2022-10-09T08:14:32.021Z,102009.31
2022-10-09T08:17:05.653Z,102009.41
2022-10-09T08:19:35.825Z,102013.91
2022-10-09T08:22:07.600Z,102014.06
2022-10-09T08:24:52.269Z,102016.19
2022-10-09T08:27:59.708Z,102015.09
2022-10-09T08:30:35.622Z,102026.22
2022-10-09T08:39:22.850Z,102033.28
2022-10-09T08:44:51.880Z,102029.31
2022-10-09T08:47:36.526Z,102039.81
2022-10-09T08:53:07.685Z,102039.81
2022-10-09T08:56:05.337Z,102033.28
2022-10-09T09:05:40.655Z,102034.56
2022-10-09T09:08:25.200Z,102029.03
2022-10-09T09:11:03.282Z,102031.78
2022-10-09T09:14:01.366Z,102031.22
2022-10-09T09:16:42.068Z,102030.28
2022-10-09T09:29:43.381Z,102013.28
2022-10-09T09:32:25.043Z,102015.69
2022-10-09T09:35:01.896Z,102015.81
2022-10-09T09:37:33.462Z,102019.19
2022-10-09T09:42:57.920Z,102024.72
2022-10-09T09:45:32.753Z,102024.38
2022-10-09T09:48:07.796Z,102017.06
2022-10-09T09:50:50.379Z,102011.72
2022-10-09T09:53:33.303Z,102008.72
2022-10-09T09:56:03.548Z,102008.69
2022-10-09T09:58:38.694Z,102014.19
2022-10-09T10:01:24.691Z,102010.19
2022-10-09T10:03:56.772Z,102005.38
2022-10-09T10:06:30.928Z,102011.38
2022-10-09T10:09:04.005Z,102009.50
2022-10-09T10:11:36.431Z,102006.50
2022-10-09T10:14:11.187Z,102003.50
2022-10-09T10:16:45.801Z,102009.16
2022-10-09T10:19:24.474Z,101999.28
2022-10-09T10:21:58.884Z,102004.50
2022-10-09T10:24:35.983Z,101995.00
2022-10-09T10:27:17.123Z,101995.34
2022-10-09T10:29:51.812Z,101990.06
2022-10-09T10:32:32.447Z,101991.69
2022-10-09T10:35:07.971Z,101991.78
2022-10-09T10:37:46.056Z,101989.00
2022-10-09T10:40:20.846Z,101988.25
2022-10-09T10:43:09.099Z,101989.56
2022-10-09T10:45:47.659Z,101984.66
2022-10-09T10:48:25.247Z,101991.59
2022-10-09T10:51:08.059Z,101982.25
2022-10-09T10:53:51.813Z,101975.47
2022-10-09T10:56:31.147Z,101973.25
2022-10-09T10:59:21.653Z,101968.00
2022-10-09T11:02:02.651Z,101959.28
2022-10-09T11:04:48.518Z,101965.91
2022-10-09T11:07:32.069Z,101963.41
2022-10-09T11:10:09.585Z,101962.25
2022-10-09T11:12:52.469Z,101959.75
2022-10-09T11:15:37.594Z,101955.69
2022-10-09T11:18:25.014Z,101959.31
2022-10-09T11:21:27.424Z,101955.69
2022-10-09T11:27:10.851Z,101942.84
2022-10-09T11:29:47.311Z,101941.91
2022-10-09T11:32:22.117Z,101933.81
2022-10-09T11:34:58.833Z,101935.75
2022-10-09T11:37:36.448Z,101935.34
2022-10-09T11:40:16.702Z,101932.22
2022-10-09T11:42:51.903Z,101928.59
2022-10-09T11:45:29.402Z,101928.72
2022-10-09T11:48:13.100Z,101924.88
2022-10-09T11:51:04.764Z,101913.09
2022-10-09T11:53:40.545Z,101909.34
2022-10-09T11:56:25.095Z,101911.75
2022-10-09T11:59:02.766Z,101902.38
2022-10-09T12:01:37.467Z,101903.69
2022-10-09T12:12:22.405Z,101902.09
2022-10-09T12:14:55.281Z,101894.91
2022-10-09T12:17:38.544Z,101894.53
2022-10-09T12:20:11.925Z,101890.84
2022-10-09T12:23:07.300Z,101887.19
2022-10-09T12:25:45.438Z,101888.69
2022-10-09T12:28:28.177Z,101882.25
2022-10-09T12:31:00.802Z,101883.84
2022-10-09T12:36:51.540Z,101869.34
2022-10-09T12:39:24.561Z,101870.09
2022-10-09T12:41:58.423Z,101871.28
2022-10-09T12:44:36.718Z,101865.75
2022-10-09T12:47:10.090Z,101860.94
2022-10-09T12:49:40.858Z,101857.81
2022-10-09T12:52:18.209Z,101851.38
2022-10-09T12:54:48.516Z,101853.84
2022-10-09T12:57:24.085Z,101854.53
2022-10-09T13:00:01.264Z,101850.47
2022-10-09T13:06:25.394Z,101847.72
2022-10-09T13:08:59.523Z,101848.22
2022-10-09T13:11:38.465Z,101837.56
2022-10-09T13:14:26.001Z,101836.25
2022-10-09T13:16:59.264Z,101835.28
2022-10-09T13:19:32.505Z,101845.25
2022-10-09T13:22:04.732Z,101838.38
2022-10-09T13:24:35.896Z,101836.50
2022-10-09T13:27:06.979Z,101833.78
2022-10-09T13:29:37.236Z,101833.75
2022-10-09T13:32:10.740Z,101828.53
2022-10-09T13:34:40.971Z,101830.19
2022-10-09T13:37:13.847Z,101821.09
2022-10-09T13:39:44.582Z,101819.81
2022-10-09T13:42:18.218Z,101817.88
2022-10-09T13:47:58.517Z,101810.41
2022-10-09T13:50:29.658Z,101821.78
2022-10-09T13:53:00.276Z,101821.13
2022-10-09T13:55:31.002Z,101811.50
2022-10-09T13:58:01.602Z,101812.41
2022-10-09T14:00:33.356Z,101809.22
2022-10-09T14:03:06.102Z,101812.53
2022-10-09T14:05:36.324Z,101803.97
2022-10-09T14:08:06.399Z,101806.06
2022-10-09T14:10:36.246Z,101796.19
2022-10-09T14:13:06.662Z,101794.00
2022-10-09T14:15:36.648Z,101805.88
2022-10-09T14:18:09.262Z,101799.00
2022-10-09T14:20:39.521Z,101793.59
2022-10-09T14:23:09.809Z,101795.28
2022-10-09T14:25:40.196Z,101798.09
2022-10-09T14:28:31.243Z,101789.81
2022-10-09T14:31:13.722Z,101786.13
2022-10-09T14:33:46.913Z,101786.03
2022-10-09T14:37:07.436Z,101780.09
2022-10-09T14:44:43.817Z,101772.03
2022-10-09T14:47:19.582Z,101768.47
2022-10-09T14:54:30.752Z,101762.97
2022-10-09T15:02:02.521Z,101758.94
2022-10-09T15:05:12.419Z,101756.19
2022-10-09T15:07:43.723Z,101756.75
2022-10-09T15:10:14.859Z,101751.22
2022-10-09T15:12:45.086Z,101743.06
2022-10-09T15:15:15.875Z,101741.31
2022-10-09T15:17:48.385Z,101751.09
2022-10-09T15:20:29.017Z,101741.09
2022-10-09T15:23:02.802Z,101741.47
2022-10-09T15:25:53.634Z,101740.47
2022-10-09T15:28:30.197Z,101744.56
2022-10-09T15:31:05.966Z,101739.81
2022-10-09T15:33:37.655Z,101745.13
2022-10-09T15:36:10.973Z,101742.84
2022-10-09T15:38:43.668Z,101731.34
2022-10-09T15:41:25.358Z,101731.41
2022-10-09T15:43:58.525Z,101729.22
2022-10-09T15:46:32.494Z,101728.50
2022-10-09T15:49:05.857Z,101735.81
2022-10-09T15:51:43.727Z,101726.31
2022-10-09T15:54:15.480Z,101729.31
2022-10-09T15:56:45.597Z,101727.41
2022-10-09T15:59:17.123Z,101728.13
2022-10-09T16:01:47.023Z,101727.66
2022-10-09T16:04:18.103Z,101729.06
2022-10-09T16:06:50.990Z,101723.69
2022-10-09T16:09:21.610Z,101723.03
2022-10-09T16:11:57.711Z,101727.44
2022-10-09T16:14:31.120Z,101726.69
2022-10-09T16:17:04.672Z,101724.88
2022-10-09T16:19:36.887Z,101728.28
2022-10-09T16:22:09.778Z,101727.94
2022-10-09T16:24:40.775Z,101722.81
2022-10-09T16:27:11.006Z,101718.59
2022-10-09T16:29:41.582Z,101712.47
2022-10-09T16:32:14.034Z,101715.78
2022-10-09T16:34:45.112Z,101717.34
2022-10-09T16:37:21.134Z,101718.78
2022-10-09T16:39:52.689Z,101715.53
2022-10-09T16:42:23.219Z,101716.59
2022-10-09T16:44:54.378Z,101711.44
2022-10-09T16:47:25.291Z,101711.03
2022-10-09T16:49:55.979Z,101715.81
2022-10-09T16:52:29.870Z,101715.63
2022-10-09T16:55:01.082Z,101714.19
2022-10-09T16:57:32.032Z,101711.91
2022-10-09T17:00:04.121Z,101714.13
2022-10-09T17:02:35.844Z,101722.59
2022-10-09T17:05:07.987Z,101712.88
2022-10-09T17:07:41.346Z,101712.00
2022-10-09T17:10:12.838Z,101708.09
2022-10-09T17:12:48.183Z,101710.31
2022-10-09T17:15:19.802Z,101710.75
2022-10-09T17:18:08.584Z,101706.56
2022-10-09T17:20:48.925Z,101711.63
2022-10-09T17:23:25.193Z,101703.28
2022-10-09T17:26:08.194Z,101711.97
2022-10-09T17:28:42.801Z,101706.31
2022-10-09T17:31:15.233Z,101704.13
2022-10-09T17:33:48.514Z,101702.38
2022-10-09T17:36:24.503Z,101707.19
2022-10-09T17:39:14.394Z,101702.47
2022-10-09T17:41:58.548Z,101698.34
2022-10-09T17:44:32.023Z,101693.34
2022-10-09T17:47:09.335Z,101692.28
2022-10-09T17:49:39.819Z,101701.47
2022-10-09T17:52:10.888Z,101694.47
2022-10-09T17:54:41.148Z,101688.81
2022-10-09T17:57:14.236Z,101684.25
2022-10-09T17:59:44.345Z,101691.00
2022-10-09T18:02:14.846Z,101693.84
2022-10-09T18:04:44.909Z,101688.06
2022-10-09T18:07:19.646Z,101686.16
2022-10-09T18:09:52.834Z,101685.56
2022-10-09T18:12:26.533Z,101693.25
2022-10-09T18:14:56.958Z,101689.78
2022-10-09T18:17:30.380Z,101690.69
2022-10-09T18:23:10.283Z,101676.84
2022-10-09T18:25:57.564Z,101672.91
2022-10-09T18:28:30.321Z,101677.88
2022-10-09T18:31:00.894Z,101672.91
2022-10-09T18:33:33.289Z,101674.38
2022-10-09T18:36:08.276Z,101664.97
2022-10-09T18:38:38.664Z,101658.34
2022-10-09T18:41:11.025Z,101665.31
2022-10-09T18:43:47.292Z,101659.75
2022-10-09T18:46:19.033Z,101661.84
2022-10-09T18:48:49.422Z,101660.19
2022-10-09T18:51:23.448Z,101661.06
2022-10-09T18:53:57.849Z,101664.94
2022-10-09T18:56:32.100Z,101663.91
2022-10-09T18:59:08.242Z,101660.72
2022-10-09T19:01:38.605Z,101657.97
2022-10-09T19:04:08.593Z,101664.13
2022-10-09T19:06:38.895Z,101655.78
2022-10-09T19:09:09.031Z,101660.47
2022-10-09T19:11:39.182Z,101654.44
2022-10-09T19:14:11.707Z,101650.47
2022-10-09T19:16:42.322Z,101658.16
2022-10-09T19:19:12.916Z,101646.72
2022-10-09T19:28:03.877Z,101636.25
2022-10-09T19:31:10.674Z,101637.59
2022-10-09T19:33:49.203Z,101637.25
2022-10-09T19:36:24.369Z,101633.09
2022-10-09T19:38:57.386Z,101641.25
2022-10-09T19:41:34.381Z,101634.75
2022-10-09T19:44:11.426Z,101630.28
2022-10-09T19:46:45.473Z,101632.09
2022-10-09T19:49:18.342Z,101625.78
2022-10-09T19:51:49.609Z,101624.25
2022-10-09T19:54:20.174Z,101621.28
2022-10-09T19:56:53.128Z,101625.59
2022-10-09T19:59:27.108Z,101612.94
2022-10-09T20:02:02.783Z,101614.38
2022-10-09T20:04:42.142Z,101612.84
2022-10-09T20:07:49.365Z,101613.03
2022-10-09T20:10:20.076Z,101614.03
2022-10-09T20:12:50.114Z,101606.53
2022-10-09T20:15:20.545Z,101608.84
2022-10-09T20:17:54.920Z,101605.69
2022-10-09T20:20:26.990Z,101609.03
2022-10-09T20:22:56.878Z,101606.88
2022-10-09T20:25:28.453Z,101599.56
2022-10-09T20:27:58.886Z,101602.50
2022-10-09T20:30:29.242Z,101609.69
2022-10-09T20:33:02.168Z,101610.69
2022-10-09T20:35:32.532Z,101607.34
2022-10-09T20:38:02.330Z,101596.84
2022-10-09T20:40:32.492Z,101605.34
2022-10-09T20:43:03.077Z,101597.22
2022-10-09T20:45:33.174Z,101590.56
2022-10-09T20:48:05.692Z,101598.72
2022-10-09T20:50:39.044Z,101593.88
2022-10-09T20:53:09.875Z,101595.53
2022-10-09T20:55:40.136Z,101593.97
2022-10-09T20:58:09.903Z,101598.44
2022-10-09T21:00:44.851Z,101598.56
2022-10-09T21:03:17.482Z,101595.75
2022-10-09T21:05:47.702Z,101596.91
2022-10-09T21:08:17.908Z,101585.84
2022-10-09T21:10:49.477Z,101587.97
2022-10-09T21:13:19.581Z,101585.31
2022-10-09T21:15:51.673Z,101577.84
2022-10-09T21:18:24.081Z,101583.16
2022-10-09T21:20:54.140Z,101585.97
2022-10-09T21:23:24.477Z,101587.59
2022-10-09T21:25:56.200Z,101574.88
2022-10-09T21:28:26.802Z,101576.28
2022-10-09T21:30:57.255Z,101577.81
2022-10-09T21:33:29.847Z,101568.81
2022-10-09T21:36:00.047Z,101566.06
2022-10-09T21:38:30.133Z,101566.06
2022-10-09T21:41:00.635Z,101559.38
2022-10-09T21:43:30.462Z,101563.97
2022-10-09T21:46:00.962Z,101559.38
2022-10-09T21:48:33.612Z,101560.81
2022-10-09T21:51:03.754Z,101560.97
2022-10-09T21:53:33.833Z,101560.03
2022-10-09T21:56:05.572Z,101557.78
2022-10-09T21:58:36.070Z,101556.41
2022-10-09T22:01:07.150Z,101564.16
2022-10-09T22:03:40.903Z,101560.72
2022-10-09T22:06:46.078Z,101556.28
2022-10-09T22:09:16.038Z,101557.94
2022-10-09T22:11:46.859Z,101551.97
2022-10-09T22:14:17.493Z,101548.94
2022-10-09T22:16:47.919Z,101550.13
2022-10-09T22:19:20.406Z,101549.69
2022-10-09T22:21:52.174Z,101550.72
2022-10-09T22:24:25.877Z,101544.88
2022-10-09T22:26:59.967Z,101540.06
2022-10-09T22:29:30.192Z,101539.59
2022-10-09T22:32:34.649Z,101528.56
2022-10-09T22:35:07.786Z,101523.06
2022-10-09T22:37:37.963Z,101511.19
2022-10-09T22:40:09.037Z,101513.31
2022-10-09T22:42:39.277Z,101516.25
2022-10-09T22:45:10.978Z,101517.94
2022-10-09T22:47:41.241Z,101512.47
2022-10-09T22:50:13.800Z,101506.88
2022-10-09T22:52:44.010Z,101508.63
2022-10-09T22:55:13.814Z,101503.56
2022-10-09T22:57:44.089Z,101499.75
2022-10-09T23:00:16.032Z,101506.13
2022-10-09T23:06:23.242Z,101506.03
2022-10-09T23:08:55.268Z,101499.00
2022-10-09T23:11:26.118Z,101507.63
2022-10-09T23:13:57.463Z,101500.81
2022-10-09T23:16:28.087Z,101495.22
2022-10-09T23:19:02.948Z,101495.25
2022-10-09T23:21:39.901Z,101487.91
2022-10-09T23:24:11.961Z,101495.97
2022-10-09T23:26:41.944Z,101485.59
2022-10-09T23:29:16.756Z,101483.66
2022-10-09T23:31:48.511Z,101477.59
2022-10-09T23:34:18.555Z,101485.84
2022-10-09T23:36:50.955Z,101483.72
2022-10-09T23:39:21.016Z,101481.56
2022-10-09T23:41:50.788Z,101486.59
2022-10-09T23:44:22.295Z,101476.53
2022-10-09T23:46:52.381Z,101476.84
2022-10-09T23:49:22.541Z,101478.53
2022-10-09T23:51:54.908Z,101471.06
2022-10-09T23:54:24.953Z,101469.28
2022-10-09T23:56:54.910Z,101476.81
2022-10-09T23:59:25.042Z,101471.38
